sensor_id;sensor_type;location;lat;lon;timestamp;temperature;humidity
78619;DHT22;67941;52.506;5.470;2023-11-21T00:00:43;8.30;85.40
78619;DHT22;67941;52.506;5.470;2023-11-21T00:03:11;8.30;85.60
78619;DHT22;67941;52.506;5.470;2023-11-21T00:05:40;8.40;85.70
78619;DHT22;67941;52.506;5.470;2023-11-21T00:08:10;8.50;85.60
78619;DHT22;67941;52.506;5.470;2023-11-21T00:11:00;8.50;85.60
78619;DHT22;67941;52.506;5.470;2023-11-21T00:13:28;8.60;85.50
78619;DHT22;67941;52.506;5.470;2023-11-21T00:15:58;8.60;85.50
78619;DHT22;67941;52.506;5.470;2023-11-21T00:18:27;8.70;85.50
78619;DHT22;67941;52.506;5.470;2023-11-21T00:20:55;8.80;85.40
78619;DHT22;67941;52.506;5.470;2023-11-21T00:23:24;8.80;85.40
78619;DHT22;67941;52.506;5.470;2023-11-21T00:25:53;8.90;85.30
78619;DHT22;67941;52.506;5.470;2023-11-21T00:28:26;8.90;85.30
78619;DHT22;67941;52.506;5.470;2023-11-21T00:30:55;8.90;85.30
78619;DHT22;67941;52.506;5.470;2023-11-21T00:33:24;8.90;85.30
78619;DHT22;67941;52.506;5.470;2023-11-21T00:35:53;9.00;85.30
78619;DHT22;67941;52.506;5.470;2023-11-21T00:38:22;9.00;85.30
78619;DHT22;67941;52.506;5.470;2023-11-21T00:40:51;9.00;85.30
78619;DHT22;67941;52.506;5.470;2023-11-21T00:43:24;9.00;85.30
78619;DHT22;67941;52.506;5.470;2023-11-21T00:45:53;9.00;85.30
78619;DHT22;67941;52.506;5.470;2023-11-21T00:48:22;9.00;85.30
78619;DHT22;67941;52.506;5.470;2023-11-21T00:50:51;9.00;85.30
78619;DHT22;67941;52.506;5.470;2023-11-21T00:53:22;9.10;85.30
78619;DHT22;67941;52.506;5.470;2023-11-21T00:55:51;9.10;85.30
78619;DHT22;67941;52.506;5.470;2023-11-21T00:58:25;9.10;85.30
78619;DHT22;67941;52.506;5.470;2023-11-21T01:00:54;9.10;85.30
78619;DHT22;67941;52.506;5.470;2023-11-21T01:03:23;9.10;85.30
78619;DHT22;67941;52.506;5.470;2023-11-21T01:05:52;9.20;85.40
78619;DHT22;67941;52.506;5.470;2023-11-21T01:08:21;9.20;85.30
78619;DHT22;67941;52.506;5.470;2023-11-21T01:10:50;9.20;85.40
78619;DHT22;67941;52.506;5.470;2023-11-21T01:13:19;9.20;85.40
78619;DHT22;67941;52.506;5.470;2023-11-21T01:15:51;9.20;85.30
78619;DHT22;67941;52.506;5.470;2023-11-21T01:18:20;9.20;85.40
78619;DHT22;67941;52.506;5.470;2023-11-21T01:20:51;9.20;85.50
78619;DHT22;67941;52.506;5.470;2023-11-21T01:23:20;9.20;85.40
78619;DHT22;67941;52.506;5.470;2023-11-21T01:25:49;9.20;85.50
78619;DHT22;67941;52.506;5.470;2023-11-21T01:28:18;9.30;85.40
78619;DHT22;67941;52.506;5.470;2023-11-21T01:30:48;9.30;85.40
78619;DHT22;67941;52.506;5.470;2023-11-21T01:33:19;9.30;85.40
78619;DHT22;67941;52.506;5.470;2023-11-21T01:35:48;9.30;85.30
78619;DHT22;67941;52.506;5.470;2023-11-21T01:38:19;9.30;85.30
78619;DHT22;67941;52.506;5.470;2023-11-21T01:40:48;9.30;85.20
78619;DHT22;67941;52.506;5.470;2023-11-21T01:43:16;9.20;85.30
78619;DHT22;67941;52.506;5.470;2023-11-21T01:45:45;9.20;85.40
78619;DHT22;67941;52.506;5.470;2023-11-21T01:48:14;9.30;85.40
78619;DHT22;67941;52.506;5.470;2023-11-21T01:50:46;9.30;85.50
78619;DHT22;67941;52.506;5.470;2023-11-21T01:53:15;9.30;85.50
78619;DHT22;67941;52.506;5.470;2023-11-21T01:55:45;9.40;85.50
78619;DHT22;67941;52.506;5.470;2023-11-21T01:58:15;9.40;85.50
78619;DHT22;67941;52.506;5.470;2023-11-21T02:00:45;9.40;85.50
78619;DHT22;67941;52.506;5.470;2023-11-21T02:03:14;9.40;85.50
78619;DHT22;67941;52.506;5.470;2023-11-21T02:05:46;9.40;85.50
78619;DHT22;67941;52.506;5.470;2023-11-21T02:08:15;9.40;85.40
78619;DHT22;67941;52.506;5.470;2023-11-21T02:10:45;9.40;85.40
78619;DHT22;67941;52.506;5.470;2023-11-21T02:13:14;9.40;85.50
78619;DHT22;67941;52.506;5.470;2023-11-21T02:15:43;9.40;85.50
78619;DHT22;67941;52.506;5.470;2023-11-21T02:18:13;9.40;85.50
78619;DHT22;67941;52.506;5.470;2023-11-21T02:20:46;9.40;85.60
78619;DHT22;67941;52.506;5.470;2023-11-21T02:23:17;9.50;85.60
78619;DHT22;67941;52.506;5.470;2023-11-21T02:25:47;9.50;85.60
78619;DHT22;67941;52.506;5.470;2023-11-21T02:28:16;9.50;85.60
78619;DHT22;67941;52.506;5.470;2023-11-21T02:30:52;9.50;85.60
78619;DHT22;67941;52.506;5.470;2023-11-21T02:33:23;9.50;85.60
78619;DHT22;67941;52.506;5.470;2023-11-21T02:35:52;9.60;85.60
78619;DHT22;67941;52.506;5.470;2023-11-21T02:38:24;9.50;85.60
78619;DHT22;67941;52.506;5.470;2023-11-21T02:40:53;9.60;85.60
78619;DHT22;67941;52.506;5.470;2023-11-21T02:43:22;9.60;85.60
78619;DHT22;67941;52.506;5.470;2023-11-21T02:45:50;9.60;85.70
78619;DHT22;67941;52.506;5.470;2023-11-21T02:48:19;9.60;85.70
78619;DHT22;67941;52.506;5.470;2023-11-21T02:50:49;9.60;85.70
78619;DHT22;67941;52.506;5.470;2023-11-21T02:53:19;9.60;85.60
78619;DHT22;67941;52.506;5.470;2023-11-21T02:55:52;9.60;85.50
78619;DHT22;67941;52.506;5.470;2023-11-21T02:58:21;9.60;85.50
78619;DHT22;67941;52.506;5.470;2023-11-21T03:00:50;9.60;85.50
78619;DHT22;67941;52.506;5.470;2023-11-21T03:03:21;9.60;85.40
78619;DHT22;67941;52.506;5.470;2023-11-21T03:05:50;9.60;85.40
78619;DHT22;67941;52.506;5.470;2023-11-21T03:08:19;9.60;85.50
78619;DHT22;67941;52.506;5.470;2023-11-21T03:10:48;9.60;85.40
78619;DHT22;67941;52.506;5.470;2023-11-21T03:13:19;9.60;85.40
78619;DHT22;67941;52.506;5.470;2023-11-21T03:15:48;9.60;85.50
78619;DHT22;67941;52.506;5.470;2023-11-21T03:18:18;9.60;85.50
78619;DHT22;67941;52.506;5.470;2023-11-21T03:20:47;9.60;85.50
78619;DHT22;67941;52.506;5.470;2023-11-21T03:23:16;9.60;85.50
78619;DHT22;67941;52.506;5.470;2023-11-21T03:25:45;9.60;85.60
78619;DHT22;67941;52.506;5.470;2023-11-21T03:28:14;9.70;85.60
78619;DHT22;67941;52.506;5.470;2023-11-21T03:30:46;9.70;85.50
78619;DHT22;67941;52.506;5.470;2023-11-21T03:33:15;9.70;85.70
78619;DHT22;67941;52.506;5.470;2023-11-21T03:35:44;9.70;85.60
78619;DHT22;67941;52.506;5.470;2023-11-21T03:38:13;9.70;85.60
78619;DHT22;67941;52.506;5.470;2023-11-21T03:40:42;9.70;85.60
78619;DHT22;67941;52.506;5.470;2023-11-21T03:43:11;9.70;85.60
78619;DHT22;67941;52.506;5.470;2023-11-21T03:45:40;9.70;85.60
78619;DHT22;67941;52.506;5.470;2023-11-21T03:48:12;9.70;85.60
78619;DHT22;67941;52.506;5.470;2023-11-21T03:50:42;9.70;85.60
78619;DHT22;67941;52.506;5.470;2023-11-21T03:53:11;9.70;85.60
78619;DHT22;67941;52.506;5.470;2023-11-21T03:55:39;9.70;85.60
78619;DHT22;67941;52.506;5.470;2023-11-21T03:58:09;9.70;85.60
78619;DHT22;67941;52.506;5.470;2023-11-21T04:00:38;9.70;85.60
78619;DHT22;67941;52.506;5.470;2023-11-21T04:03:07;9.70;85.70
78619;DHT22;67941;52.506;5.470;2023-11-21T04:05:38;9.70;85.70
78619;DHT22;67941;52.506;5.470;2023-11-21T04:08:07;9.70;85.80
78619;DHT22;67941;52.506;5.470;2023-11-21T04:10:36;9.80;85.70
78619;DHT22;67941;52.506;5.470;2023-11-21T04:13:05;9.80;85.70
78619;DHT22;67941;52.506;5.470;2023-11-21T04:15:34;9.80;85.70
78619;DHT22;67941;52.506;5.470;2023-11-21T04:18:03;9.80;85.80
78619;DHT22;67941;52.506;5.470;2023-11-21T04:20:32;9.80;85.70
78619;DHT22;67941;52.506;5.470;2023-11-21T04:23:03;9.80;85.70
78619;DHT22;67941;52.506;5.470;2023-11-21T04:25:32;9.80;85.70
78619;DHT22;67941;52.506;5.470;2023-11-21T04:28:01;9.80;85.70
78619;DHT22;67941;52.506;5.470;2023-11-21T04:30:30;9.70;85.50
78619;DHT22;67941;52.506;5.470;2023-11-21T04:32:59;9.70;85.60
78619;DHT22;67941;52.506;5.470;2023-11-21T04:35:28;9.70;85.70
78619;DHT22;67941;52.506;5.470;2023-11-21T04:37:57;9.70;85.80
78619;DHT22;67941;52.506;5.470;2023-11-21T04:40:29;9.70;85.90
78619;DHT22;67941;52.506;5.470;2023-11-21T04:42:57;9.80;85.90
78619;DHT22;67941;52.506;5.470;2023-11-21T04:45:27;9.80;85.90
78619;DHT22;67941;52.506;5.470;2023-11-21T04:47:56;9.80;86.00
78619;DHT22;67941;52.506;5.470;2023-11-21T04:50:25;9.90;85.90
78619;DHT22;67941;52.506;5.470;2023-11-21T04:52:54;9.90;85.90
78619;DHT22;67941;52.506;5.470;2023-11-21T04:55:23;10.00;85.90
78619;DHT22;67941;52.506;5.470;2023-11-21T04:57:56;10.00;85.90
78619;DHT22;67941;52.506;5.470;2023-11-21T05:00:25;10.00;85.90
78619;DHT22;67941;52.506;5.470;2023-11-21T05:02:54;10.00;85.90
78619;DHT22;67941;52.506;5.470;2023-11-21T05:05:23;10.00;85.90
78619;DHT22;67941;52.506;5.470;2023-11-21T05:07:51;10.00;85.80
78619;DHT22;67941;52.506;5.470;2023-11-21T05:10:20;10.00;85.80
78619;DHT22;67941;52.506;5.470;2023-11-21T05:12:50;10.00;85.90
78619;DHT22;67941;52.506;5.470;2023-11-21T05:15:21;10.00;85.90
78619;DHT22;67941;52.506;5.470;2023-11-21T05:17:50;10.00;85.80
78619;DHT22;67941;52.506;5.470;2023-11-21T05:20:20;10.00;85.80
78619;DHT22;67941;52.506;5.470;2023-11-21T05:22:49;10.00;85.80
78619;DHT22;67941;52.506;5.470;2023-11-21T05:25:18;10.00;85.80
78619;DHT22;67941;52.506;5.470;2023-11-21T05:27:47;10.00;85.80
78619;DHT22;67941;52.506;5.470;2023-11-21T05:30:16;10.00;85.80
78619;DHT22;67941;52.506;5.470;2023-11-21T05:32:48;10.00;85.80
78619;DHT22;67941;52.506;5.470;2023-11-21T05:35:17;10.00;85.80
78619;DHT22;67941;52.506;5.470;2023-11-21T05:37:47;10.00;85.80
78619;DHT22;67941;52.506;5.470;2023-11-21T05:40:16;10.00;85.80
78619;DHT22;67941;52.506;5.470;2023-11-21T05:42:45;10.00;85.80
78619;DHT22;67941;52.506;5.470;2023-11-21T05:45:29;10.00;85.90
78619;DHT22;67941;52.506;5.470;2023-11-21T05:48:00;10.00;85.90
78619;DHT22;67941;52.506;5.470;2023-11-21T05:50:30;10.00;85.90
78619;DHT22;67941;52.506;5.470;2023-11-21T05:52:58;10.00;86.00
78619;DHT22;67941;52.506;5.470;2023-11-21T05:55:28;10.00;85.90
78619;DHT22;67941;52.506;5.470;2023-11-21T05:57:57;10.00;85.90
78619;DHT22;67941;52.506;5.470;2023-11-21T06:00:26;10.00;85.90
78619;DHT22;67941;52.506;5.470;2023-11-21T06:02:55;10.00;86.00
78619;DHT22;67941;52.506;5.470;2023-11-21T06:05:27;10.00;86.00
78619;DHT22;67941;52.506;5.470;2023-11-21T06:07:56;10.00;86.10
78619;DHT22;67941;52.506;5.470;2023-11-21T06:10:27;10.00;86.00
78619;DHT22;67941;52.506;5.470;2023-11-21T06:12:56;10.00;86.00
78619;DHT22;67941;52.506;5.470;2023-11-21T06:15:25;10.00;86.00
78619;DHT22;67941;52.506;5.470;2023-11-21T06:17:55;10.00;86.10
78619;DHT22;67941;52.506;5.470;2023-11-21T06:20:27;10.10;86.00
78619;DHT22;67941;52.506;5.470;2023-11-21T06:22:56;10.10;86.10
78619;DHT22;67941;52.506;5.470;2023-11-21T06:25:29;10.10;86.10
78619;DHT22;67941;52.506;5.470;2023-11-21T06:27:59;10.10;86.00
78619;DHT22;67941;52.506;5.470;2023-11-21T06:30:27;10.10;86.10
78619;DHT22;67941;52.506;5.470;2023-11-21T06:32:57;10.10;86.10
78619;DHT22;67941;52.506;5.470;2023-11-21T06:35:29;10.10;86.00
78619;DHT22;67941;52.506;5.470;2023-11-21T06:38:00;10.10;86.00
78619;DHT22;67941;52.506;5.470;2023-11-21T06:40:29;10.10;86.10
78619;DHT22;67941;52.506;5.470;2023-11-21T06:42:59;10.10;86.00
78619;DHT22;67941;52.506;5.470;2023-11-21T06:45:28;10.10;86.10
78619;DHT22;67941;52.506;5.470;2023-11-21T06:47:57;10.10;86.00
78619;DHT22;67941;52.506;5.470;2023-11-21T06:50:26;10.20;86.00
78619;DHT22;67941;52.506;5.470;2023-11-21T06:52:57;10.10;86.00
78619;DHT22;67941;52.506;5.470;2023-11-21T06:55:28;10.10;86.10
78619;DHT22;67941;52.506;5.470;2023-11-21T06:58:12;10.10;86.10
78619;DHT22;67941;52.506;5.470;2023-11-21T07:00:41;10.20;86.20
78619;DHT22;67941;52.506;5.470;2023-11-21T07:03:12;10.20;86.20
78619;DHT22;67941;52.506;5.470;2023-11-21T07:05:41;10.20;86.20
78619;DHT22;67941;52.506;5.470;2023-11-21T07:08:13;10.20;86.30
78619;DHT22;67941;52.506;5.470;2023-11-21T07:10:41;10.20;86.20
78619;DHT22;67941;52.506;5.470;2023-11-21T07:13:10;10.30;86.20
78619;DHT22;67941;52.506;5.470;2023-11-21T07:15:39;10.30;86.20
78619;DHT22;67941;52.506;5.470;2023-11-21T07:18:09;10.30;86.20
78619;DHT22;67941;52.506;5.470;2023-11-21T07:20:38;10.30;86.20
78619;DHT22;67941;52.506;5.470;2023-11-21T07:23:07;10.30;86.30
78619;DHT22;67941;52.506;5.470;2023-11-21T07:25:41;10.30;86.20
78619;DHT22;67941;52.506;5.470;2023-11-21T07:28:10;10.30;86.20
78619;DHT22;67941;52.506;5.470;2023-11-21T07:30:39;10.30;86.20
78619;DHT22;67941;52.506;5.470;2023-11-21T07:33:08;10.30;86.20
78619;DHT22;67941;52.506;5.470;2023-11-21T07:35:37;10.20;86.20
78619;DHT22;67941;52.506;5.470;2023-11-21T07:38:06;10.20;86.20
78619;DHT22;67941;52.506;5.470;2023-11-21T07:40:37;10.20;86.20
78619;DHT22;67941;52.506;5.470;2023-11-21T07:43:06;10.20;86.30
78619;DHT22;67941;52.506;5.470;2023-11-21T07:45:36;10.20;86.30
78619;DHT22;67941;52.506;5.470;2023-11-21T07:48:05;10.20;86.30
78619;DHT22;67941;52.506;5.470;2023-11-21T07:50:34;10.20;86.40
78619;DHT22;67941;52.506;5.470;2023-11-21T07:53:03;10.20;86.40
78619;DHT22;67941;52.506;5.470;2023-11-21T07:55:32;10.20;86.40
78619;DHT22;67941;52.506;5.470;2023-11-21T07:58:04;10.20;86.40
78619;DHT22;67941;52.506;5.470;2023-11-21T08:00:33;10.20;86.40
78619;DHT22;67941;52.506;5.470;2023-11-21T08:03:03;10.20;86.40
78619;DHT22;67941;52.506;5.470;2023-11-21T08:05:32;10.20;86.50
78619;DHT22;67941;52.506;5.470;2023-11-21T08:08:01;10.20;86.40
78619;DHT22;67941;52.506;5.470;2023-11-21T08:10:30;10.20;86.50
78619;DHT22;67941;52.506;5.470;2023-11-21T08:12:58;10.20;86.50
78619;DHT22;67941;52.506;5.470;2023-11-21T08:15:30;10.20;86.60
78619;DHT22;67941;52.506;5.470;2023-11-21T08:18:00;10.30;86.70
78619;DHT22;67941;52.506;5.470;2023-11-21T08:20:29;10.30;86.80
78619;DHT22;67941;52.506;5.470;2023-11-21T08:22:58;10.30;86.70
78619;DHT22;67941;52.506;5.470;2023-11-21T08:25:29;10.30;86.60
78619;DHT22;67941;52.506;5.470;2023-11-21T08:27:57;10.30;86.50
78619;DHT22;67941;52.506;5.470;2023-11-21T08:30:30;10.20;86.50
78619;DHT22;67941;52.506;5.470;2023-11-21T08:32:58;10.20;86.40
78619;DHT22;67941;52.506;5.470;2023-11-21T08:35:29;10.20;86.40
78619;DHT22;67941;52.506;5.470;2023-11-21T08:37:58;10.20;86.40
78619;DHT22;67941;52.506;5.470;2023-11-21T08:40:26;10.10;86.30
78619;DHT22;67941;52.506;5.470;2023-11-21T08:42:55;10.10;86.30
78619;DHT22;67941;52.506;5.470;2023-11-21T08:45:25;10.10;86.30
78619;DHT22;67941;52.506;5.470;2023-11-21T08:47:56;10.10;86.30
78619;DHT22;67941;52.506;5.470;2023-11-21T08:50:25;10.00;86.30
78619;DHT22;67941;52.506;5.470;2023-11-21T08:52:54;10.00;86.30
78619;DHT22;67941;52.506;5.470;2023-11-21T08:55:23;10.00;86.30
78619;DHT22;67941;52.506;5.470;2023-11-21T08:57:52;10.00;86.30
78619;DHT22;67941;52.506;5.470;2023-11-21T09:00:21;10.00;86.30
78619;DHT22;67941;52.506;5.470;2023-11-21T09:02:49;10.00;86.30
78619;DHT22;67941;52.506;5.470;2023-11-21T09:05:21;10.00;86.30
78619;DHT22;67941;52.506;5.470;2023-11-21T09:07:50;10.00;86.30
78619;DHT22;67941;52.506;5.470;2023-11-21T09:10:19;10.00;86.30
78619;DHT22;67941;52.506;5.470;2023-11-21T09:12:48;10.00;86.30
78619;DHT22;67941;52.506;5.470;2023-11-21T09:15:17;10.00;86.40
78619;DHT22;67941;52.506;5.470;2023-11-21T09:17:46;9.90;86.40
78619;DHT22;67941;52.506;5.470;2023-11-21T09:20:15;9.90;86.40
78619;DHT22;67941;52.506;5.470;2023-11-21T09:22:47;10.00;86.40
78619;DHT22;67941;52.506;5.470;2023-11-21T09:25:16;9.90;86.40
78619;DHT22;67941;52.506;5.470;2023-11-21T09:27:46;9.90;86.40
78619;DHT22;67941;52.506;5.470;2023-11-21T09:30:15;9.90;86.50
78619;DHT22;67941;52.506;5.470;2023-11-21T09:32:44;9.90;86.50
78619;DHT22;67941;52.506;5.470;2023-11-21T09:35:13;9.90;86.50
78619;DHT22;67941;52.506;5.470;2023-11-21T09:37:46;9.90;86.50
78619;DHT22;67941;52.506;5.470;2023-11-21T09:40:20;10.00;86.50
78619;DHT22;67941;52.506;5.470;2023-11-21T09:42:54;10.00;86.50
78619;DHT22;67941;52.506;5.470;2023-11-21T09:45:28;10.00;86.60
78619;DHT22;67941;52.506;5.470;2023-11-21T09:47:57;10.00;86.50
78619;DHT22;67941;52.506;5.470;2023-11-21T09:50:27;10.00;86.50
78619;DHT22;67941;52.506;5.470;2023-11-21T09:53:08;10.00;86.50
78619;DHT22;67941;52.506;5.470;2023-11-21T09:55:43;10.00;86.40
78619;DHT22;67941;52.506;5.470;2023-11-21T09:58:13;9.90;86.30
78619;DHT22;67941;52.506;5.470;2023-11-21T10:00:43;9.90;86.30
78619;DHT22;67941;52.506;5.470;2023-11-21T10:03:12;9.80;86.30
78619;DHT22;67941;52.506;5.470;2023-11-21T10:05:43;9.80;86.40
78619;DHT22;67941;52.506;5.470;2023-11-21T10:08:15;9.80;86.40
78619;DHT22;67941;52.506;5.470;2023-11-21T10:10:45;9.80;86.40
78619;DHT22;67941;52.506;5.470;2023-11-21T10:13:14;9.80;86.50
78619;DHT22;67941;52.506;5.470;2023-11-21T10:15:50;9.80;86.60
78619;DHT22;67941;52.506;5.470;2023-11-21T10:18:18;9.90;86.70
78619;DHT22;67941;52.506;5.470;2023-11-21T10:23:35;10.00;86.60
78619;DHT22;67941;52.506;5.470;2023-11-21T10:26:05;10.00;86.60
78619;DHT22;67941;52.506;5.470;2023-11-21T10:28:35;10.00;86.70
78619;DHT22;67941;52.506;5.470;2023-11-21T10:31:07;10.00;86.70
78619;DHT22;67941;52.506;5.470;2023-11-21T10:33:37;10.00;86.70
78619;DHT22;67941;52.506;5.470;2023-11-21T10:36:07;10.10;86.80
78619;DHT22;67941;52.506;5.470;2023-11-21T10:38:44;10.20;86.90
78619;DHT22;67941;52.506;5.470;2023-11-21T10:41:18;10.20;86.80
78619;DHT22;67941;52.506;5.470;2023-11-21T10:43:47;10.20;86.60
78619;DHT22;67941;52.506;5.470;2023-11-21T10:46:15;10.20;86.60
78619;DHT22;67941;52.506;5.470;2023-11-21T10:48:44;10.20;86.60
78619;DHT22;67941;52.506;5.470;2023-11-21T10:51:13;10.20;86.70
78619;DHT22;67941;52.506;5.470;2023-11-21T10:53:47;10.30;86.80
78619;DHT22;67941;52.506;5.470;2023-11-21T10:56:18;10.30;86.80
78619;DHT22;67941;52.506;5.470;2023-11-21T10:58:49;10.30;86.60
78619;DHT22;67941;52.506;5.470;2023-11-21T11:01:19;10.30;86.40
78619;DHT22;67941;52.506;5.470;2023-11-21T11:03:48;10.20;86.40
78619;DHT22;67941;52.506;5.470;2023-11-21T11:06:21;10.20;86.40
78619;DHT22;67941;52.506;5.470;2023-11-21T11:08:54;10.20;86.40
78619;DHT22;67941;52.506;5.470;2023-11-21T11:11:24;10.20;86.40
78619;DHT22;67941;52.506;5.470;2023-11-21T11:13:54;10.20;86.50
78619;DHT22;67941;52.506;5.470;2023-11-21T11:16:23;10.20;86.70
78619;DHT22;67941;52.506;5.470;2023-11-21T11:18:53;10.30;86.80
78619;DHT22;67941;52.506;5.470;2023-11-21T11:21:31;10.30;86.80
78619;DHT22;67941;52.506;5.470;2023-11-21T11:24:25;10.40;86.60
78619;DHT22;67941;52.506;5.470;2023-11-21T11:26:58;10.30;86.30
78619;DHT22;67941;52.506;5.470;2023-11-21T11:29:35;10.20;86.30
78619;DHT22;67941;52.506;5.470;2023-11-21T11:32:13;10.20;86.50
78619;DHT22;67941;52.506;5.470;2023-11-21T11:34:50;10.20;86.40
78619;DHT22;67941;52.506;5.470;2023-11-21T11:37:22;10.20;86.40
78619;DHT22;67941;52.506;5.470;2023-11-21T11:39:54;10.20;86.40
78619;DHT22;67941;52.506;5.470;2023-11-21T11:42:23;10.10;86.40
78619;DHT22;67941;52.506;5.470;2023-11-21T11:44:53;10.10;86.20
78619;DHT22;67941;52.506;5.470;2023-11-21T11:47:24;10.00;86.30
78619;DHT22;67941;52.506;5.470;2023-11-21T11:50:00;10.00;86.20
78619;DHT22;67941;52.506;5.470;2023-11-21T11:52:37;10.00;86.30
78619;DHT22;67941;52.506;5.470;2023-11-21T11:55:11;9.90;86.40
78619;DHT22;67941;52.506;5.470;2023-11-21T11:57:41;9.90;86.50
78619;DHT22;67941;52.506;5.470;2023-11-21T12:00:15;10.00;86.40
78619;DHT22;67941;52.506;5.470;2023-11-21T12:02:47;9.90;86.40
78619;DHT22;67941;52.506;5.470;2023-11-21T12:05:17;10.00;86.40
78619;DHT22;67941;52.506;5.470;2023-11-21T12:07:48;9.90;86.40
78619;DHT22;67941;52.506;5.470;2023-11-21T12:10:23;9.90;86.30
78619;DHT22;67941;52.506;5.470;2023-11-21T12:12:55;9.80;86.20
78619;DHT22;67941;52.506;5.470;2023-11-21T12:15:25;9.80;86.20
78619;DHT22;67941;52.506;5.470;2023-11-21T12:17:55;9.70;86.10
78619;DHT22;67941;52.506;5.470;2023-11-21T12:20:26;9.70;86.30
78619;DHT22;67941;52.506;5.470;2023-11-21T12:22:56;9.70;86.30
78619;DHT22;67941;52.506;5.470;2023-11-21T12:25:30;9.70;86.40
78619;DHT22;67941;52.506;5.470;2023-11-21T12:28:00;9.70;86.40
78619;DHT22;67941;52.506;5.470;2023-11-21T12:30:31;9.70;86.30
78619;DHT22;67941;52.506;5.470;2023-11-21T12:33:02;9.70;86.30
78619;DHT22;67941;52.506;5.470;2023-11-21T12:35:34;9.70;86.50
78619;DHT22;67941;52.506;5.470;2023-11-21T12:38:04;9.70;86.50
78619;DHT22;67941;52.506;5.470;2023-11-21T12:40:37;9.70;86.50
78619;DHT22;67941;52.506;5.470;2023-11-21T12:43:07;9.70;86.50
78619;DHT22;67941;52.506;5.470;2023-11-21T12:45:36;9.70;86.50
78619;DHT22;67941;52.506;5.470;2023-11-21T12:48:06;9.70;86.60
78619;DHT22;67941;52.506;5.470;2023-11-21T12:50:38;9.80;86.60
78619;DHT22;67941;52.506;5.470;2023-11-21T12:53:09;9.80;86.60
78619;DHT22;67941;52.506;5.470;2023-11-21T12:55:41;9.80;86.60
78619;DHT22;67941;52.506;5.470;2023-11-21T12:58:16;9.80;86.70
78619;DHT22;67941;52.506;5.470;2023-11-21T13:00:47;9.80;86.60
78619;DHT22;67941;52.506;5.470;2023-11-21T13:03:17;9.80;86.50
78619;DHT22;67941;52.506;5.470;2023-11-21T13:05:51;9.80;86.40
78619;DHT22;67941;52.506;5.470;2023-11-21T13:08:24;9.80;86.20
78619;DHT22;67941;52.506;5.470;2023-11-21T13:10:58;9.70;86.10
78619;DHT22;67941;52.506;5.470;2023-11-21T13:13:29;9.70;86.10
78619;DHT22;67941;52.506;5.470;2023-11-21T13:16:00;9.60;86.00
78619;DHT22;67941;52.506;5.470;2023-11-21T13:18:30;9.60;86.10
78619;DHT22;67941;52.506;5.470;2023-11-21T13:21:02;9.60;86.10
78619;DHT22;67941;52.506;5.470;2023-11-21T13:23:36;9.60;86.20
78619;DHT22;67941;52.506;5.470;2023-11-21T13:26:09;9.60;86.20
78619;DHT22;67941;52.506;5.470;2023-11-21T13:28:38;9.60;86.10
78619;DHT22;67941;52.506;5.470;2023-11-21T13:31:11;9.50;86.10
78619;DHT22;67941;52.506;5.470;2023-11-21T13:33:47;9.50;86.10
78619;DHT22;67941;52.506;5.470;2023-11-21T13:36:21;9.50;86.10
78619;DHT22;67941;52.506;5.470;2023-11-21T13:38:50;9.50;86.10
78619;DHT22;67941;52.506;5.470;2023-11-21T13:41:22;9.50;86.00
78619;DHT22;67941;52.506;5.470;2023-11-21T13:43:56;9.50;85.90
78619;DHT22;67941;52.506;5.470;2023-11-21T13:46:41;9.40;85.90
78619;DHT22;67941;52.506;5.470;2023-11-21T13:49:11;9.40;85.80
78619;DHT22;67941;52.506;5.470;2023-11-21T13:51:41;9.40;85.70
78619;DHT22;67941;52.506;5.470;2023-11-21T13:54:10;9.40;85.80
78619;DHT22;67941;52.506;5.470;2023-11-21T13:56:42;9.30;85.80
78619;DHT22;67941;52.506;5.470;2023-11-21T13:59:12;9.30;85.70
78619;DHT22;67941;52.506;5.470;2023-11-21T14:01:46;9.20;85.60
78619;DHT22;67941;52.506;5.470;2023-11-21T14:04:26;9.20;85.50
78619;DHT22;67941;52.506;5.470;2023-11-21T14:07:15;9.10;85.50
78619;DHT22;67941;52.506;5.470;2023-11-21T14:09:57;9.10;85.50
78619;DHT22;67941;52.506;5.470;2023-11-21T14:12:29;9.00;85.50
78619;DHT22;67941;52.506;5.470;2023-11-21T14:15:02;9.10;85.70
78619;DHT22;67941;52.506;5.470;2023-11-21T14:17:33;9.10;85.90
78619;DHT22;67941;52.506;5.470;2023-11-21T14:20:05;9.10;85.80
78619;DHT22;67941;52.506;5.470;2023-11-21T14:22:41;9.20;85.70
78619;DHT22;67941;52.506;5.470;2023-11-21T14:25:10;9.20;85.80
78619;DHT22;67941;52.506;5.470;2023-11-21T14:27:42;9.20;85.70
78619;DHT22;67941;52.506;5.470;2023-11-21T14:30:12;9.20;85.60
78619;DHT22;67941;52.506;5.470;2023-11-21T14:32:45;9.20;85.60
78619;DHT22;67941;52.506;5.470;2023-11-21T14:35:14;9.20;85.40
78619;DHT22;67941;52.506;5.470;2023-11-21T14:37:43;9.20;85.30
78619;DHT22;67941;52.506;5.470;2023-11-21T14:40:12;9.20;85.20
78619;DHT22;67941;52.506;5.470;2023-11-21T14:42:44;9.20;85.00
78619;DHT22;67941;52.506;5.470;2023-11-21T14:45:14;9.00;84.70
78619;DHT22;67941;52.506;5.470;2023-11-21T14:47:46;9.00;84.60
78619;DHT22;67941;52.506;5.470;2023-11-21T14:50:23;8.90;84.50
78619;DHT22;67941;52.506;5.470;2023-11-21T14:53:19;8.80;84.40
78619;DHT22;67941;52.506;5.470;2023-11-21T14:56:09;8.60;84.40
78619;DHT22;67941;52.506;5.470;2023-11-21T14:58:38;8.50;84.40
78619;DHT22;67941;52.506;5.470;2023-11-21T15:01:07;8.50;84.40
78619;DHT22;67941;52.506;5.470;2023-11-21T15:03:39;8.40;84.50
78619;DHT22;67941;52.506;5.470;2023-11-21T15:06:15;8.40;84.70
78619;DHT22;67941;52.506;5.470;2023-11-21T15:08:49;8.40;84.70
78619;DHT22;67941;52.506;5.470;2023-11-21T15:11:26;8.30;84.70
78619;DHT22;67941;52.506;5.470;2023-11-21T15:13:59;8.30;84.60
78619;DHT22;67941;52.506;5.470;2023-11-21T15:16:32;8.30;84.70
78619;DHT22;67941;52.506;5.470;2023-11-21T15:19:04;8.30;84.70
78619;DHT22;67941;52.506;5.470;2023-11-21T15:21:35;8.30;84.80
78619;DHT22;67941;52.506;5.470;2023-11-21T15:24:05;8.30;84.70
78619;DHT22;67941;52.506;5.470;2023-11-21T15:26:34;8.30;84.60
78619;DHT22;67941;52.506;5.470;2023-11-21T15:29:05;8.30;84.60
78619;DHT22;67941;52.506;5.470;2023-11-21T15:31:34;8.20;84.50
78619;DHT22;67941;52.506;5.470;2023-11-21T15:34:04;8.20;84.50
78619;DHT22;67941;52.506;5.470;2023-11-21T15:36:34;8.20;84.40
78619;DHT22;67941;52.506;5.470;2023-11-21T15:39:03;8.20;84.30
78619;DHT22;67941;52.506;5.470;2023-11-21T15:41:33;8.10;84.10
78619;DHT22;67941;52.506;5.470;2023-11-21T15:44:07;8.00;84.00
78619;DHT22;67941;52.506;5.470;2023-11-21T15:46:37;8.00;83.90
78619;DHT22;67941;52.506;5.470;2023-11-21T15:49:07;7.90;83.90
78619;DHT22;67941;52.506;5.470;2023-11-21T15:51:38;7.80;83.80
78619;DHT22;67941;52.506;5.470;2023-11-21T15:54:09;7.70;83.70
78619;DHT22;67941;52.506;5.470;2023-11-21T15:56:38;7.60;83.60
78619;DHT22;67941;52.506;5.470;2023-11-21T15:59:11;7.50;83.60
78619;DHT22;67941;52.506;5.470;2023-11-21T16:01:39;7.50;83.70
78619;DHT22;67941;52.506;5.470;2023-11-21T16:04:12;7.50;83.80